createdAt,value
2019-04-19T00:01:55.324Z,7.23
2019-04-19T00:04:20.275Z,7.00
2019-04-19T00:07:02.022Z,6.83
2019-04-19T00:09:36.216Z,7.87
2019-04-19T00:12:09.192Z,7.20
2019-04-19T00:14:25.741Z,7.43
2019-04-19T00:16:57.470Z,7.53
2019-04-19T00:19:49.502Z,7.60
2019-04-19T00:22:18.518Z,8.00
2019-04-19T00:24:30.518Z,8.03
2019-04-19T00:27:02.257Z,8.30
2019-04-19T00:29:42.855Z,8.27
2019-04-19T00:32:18.858Z,7.93
2019-04-19T00:34:35.586Z,7.57
2019-04-19T00:37:05.786Z,7.87
2019-04-19T00:40:07.557Z,7.80
2019-04-19T00:42:47.951Z,7.60
2019-04-19T00:45:26.422Z,7.83
2019-04-19T00:47:58.665Z,8.20
2019-04-19T00:50:26.836Z,8.53
2019-04-19T00:53:02.919Z,9.20
2019-04-19T00:55:25.746Z,8.90
2019-04-19T00:57:58.026Z,8.43
2019-04-19T01:00:25.995Z,8.20
2019-04-19T01:02:56.073Z,8.80
2019-04-19T01:05:27.676Z,8.77
2019-04-19T01:07:55.674Z,9.03
2019-04-19T01:10:36.854Z,8.27
2019-04-19T01:13:09.910Z,8.43
2019-04-19T01:15:36.526Z,8.17
2019-04-19T01:18:15.274Z,8.80
2019-04-19T01:20:31.152Z,8.10
2019-04-19T01:23:07.427Z,8.77
2019-04-19T01:25:33.641Z,8.67
2019-04-19T01:28:10.974Z,8.13
2019-04-19T01:30:38.471Z,7.90
2019-04-19T01:33:07.097Z,8.63
2019-04-19T01:35:41.091Z,8.37
2019-04-19T01:38:10.178Z,7.77
2019-04-19T01:40:59.193Z,8.10
2019-04-19T01:43:27.839Z,8.47
2019-04-19T01:46:09.289Z,8.77
2019-04-19T01:49:14.164Z,9.10
2019-04-19T01:52:22.396Z,9.73
2019-04-19T01:54:47.644Z,9.30
2019-04-19T01:57:05.435Z,9.53
2019-04-19T01:59:39.842Z,8.83
2019-04-19T02:02:09.468Z,8.70
2019-04-19T02:04:36.526Z,8.63
2019-04-19T02:07:12.626Z,9.07
2019-04-19T02:09:57.473Z,9.03
2019-04-19T02:12:22.433Z,9.00
2019-04-19T02:15:04.792Z,9.10
2019-04-19T02:17:37.255Z,8.20
2019-04-19T02:20:04.120Z,8.90
2019-04-19T02:22:36.079Z,8.73
2019-04-19T02:25:03.869Z,8.93
2019-04-19T02:27:40.060Z,9.07
2019-04-19T02:30:15.886Z,8.53
2019-04-19T02:32:55.681Z,9.10
2019-04-19T02:35:31.803Z,8.80
2019-04-19T02:38:04.274Z,9.27
2019-04-19T02:40:52.334Z,9.03
2019-04-19T02:43:10.609Z,8.77
2019-04-19T02:45:44.324Z,9.33
2019-04-19T02:48:13.269Z,8.57
2019-04-19T02:55:45.786Z,8.43
2019-04-19T03:01:17.272Z,9.03
2019-04-19T03:03:27.416Z,9.10
2019-04-19T03:05:57.104Z,9.03
2019-04-19T03:08:10.639Z,8.83
2019-04-19T03:10:53.513Z,8.87
2019-04-19T03:13:29.641Z,8.23
2019-04-19T03:15:58.321Z,8.47
2019-04-19T03:18:30.770Z,8.00
2019-04-19T03:20:54.188Z,7.90
2019-04-19T03:23:26.226Z,8.43
2019-04-19T03:25:54.691Z,8.97
2019-04-19T03:28:26.672Z,9.30
2019-04-19T03:31:20.429Z,9.03
2019-04-19T03:36:11.999Z,9.10
2019-04-19T03:38:40.344Z,9.07
2019-04-19T03:41:18.893Z,9.13
2019-04-19T03:43:51.789Z,8.30
2019-04-19T03:46:21.442Z,8.87
2019-04-19T03:48:51.828Z,8.60
2019-04-19T03:51:24.248Z,8.53
2019-04-19T03:54:14.423Z,8.93
2019-04-19T03:56:30.318Z,8.67
2019-04-19T03:58:41.804Z,8.10
2019-04-19T04:01:12.822Z,8.23
2019-04-19T04:03:46.677Z,7.60
2019-04-19T04:06:23.057Z,7.90
2019-04-19T04:08:53.659Z,7.57
2019-04-19T04:11:29.545Z,8.43
2019-04-19T04:14:15.012Z,10.43
2019-04-19T04:16:53.775Z,10.73
2019-04-19T04:19:23.064Z,8.73
2019-04-19T04:21:54.002Z,7.93
2019-04-19T04:24:32.040Z,8.10
2019-04-19T04:27:05.857Z,8.23
2019-04-19T04:29:34.734Z,8.00
2019-04-19T04:32:11.346Z,8.63
2019-04-19T04:34:40.934Z,8.97
2019-04-19T04:37:17.011Z,8.97
2019-04-19T04:39:32.330Z,9.60
2019-04-19T04:42:11.324Z,9.10
2019-04-19T04:45:01.732Z,9.23
2019-04-19T04:47:39.357Z,9.83
2019-04-19T04:50:19.456Z,8.63
2019-04-19T04:52:40.523Z,11.87
2019-04-19T04:55:15.870Z,10.33
2019-04-19T04:57:52.141Z,10.83
2019-04-19T05:00:20.368Z,9.13
2019-04-19T05:03:06.114Z,10.33
2019-04-19T05:05:35.729Z,10.33
2019-04-19T05:08:14.594Z,9.77
2019-04-19T05:10:35.950Z,10.03
2019-04-19T05:13:19.672Z,9.93
2019-04-19T05:15:43.399Z,10.00
2019-04-19T05:20:41.057Z,9.60
2019-04-19T05:23:14.629Z,11.10
2019-04-19T05:25:51.395Z,11.43
2019-04-19T05:28:16.767Z,10.23
2019-04-19T05:30:41.184Z,9.60
2019-04-19T05:33:14.109Z,9.60
2019-04-19T05:35:52.369Z,9.27
2019-04-19T05:38:44.945Z,9.70
2019-04-19T05:41:29.745Z,9.53
2019-04-19T05:44:37.158Z,10.33
2019-04-19T05:47:01.427Z,15.30
2019-04-19T05:49:28.091Z,17.13
2019-04-19T05:52:02.129Z,10.07
2019-04-19T05:54:16.992Z,11.60
2019-04-19T05:56:53.245Z,12.07
2019-04-19T05:59:30.581Z,11.67
2019-04-19T06:02:02.226Z,10.13
2019-04-19T06:04:38.974Z,9.47
2019-04-19T06:07:10.487Z,9.43
2019-04-19T06:09:21.910Z,9.80
2019-04-19T06:11:53.239Z,10.17
2019-04-19T06:14:45.407Z,13.80
2019-04-19T06:17:48.781Z,12.37
2019-04-19T06:20:16.317Z,19.60
2019-04-19T06:22:53.470Z,10.97
2019-04-19T06:25:24.708Z,24.57
2019-04-19T06:28:09.372Z,12.80
2019-04-19T06:30:27.250Z,10.90
2019-04-19T06:32:56.277Z,10.93
2019-04-19T06:35:22.153Z,11.10
2019-04-19T06:37:41.978Z,10.03
2019-04-19T06:40:19.745Z,10.20
2019-04-19T06:42:54.287Z,11.03
2019-04-19T06:45:32.220Z,11.23
2019-04-19T06:47:54.289Z,10.67
2019-04-19T06:50:25.769Z,11.80
2019-04-19T06:52:48.998Z,11.77
2019-04-19T06:55:25.995Z,11.53
2019-04-19T06:57:58.966Z,13.07
2019-04-19T07:00:34.957Z,14.27
2019-04-19T07:02:54.195Z,16.17
2019-04-19T07:05:37.327Z,14.70
2019-04-19T07:08:29.978Z,12.97
2019-04-19T07:10:51.507Z,13.00
2019-04-19T07:13:16.195Z,12.97
2019-04-19T07:15:59.989Z,13.37
2019-04-19T07:18:19.035Z,13.00
2019-04-19T07:20:54.699Z,13.93
2019-04-19T07:23:26.124Z,14.97
2019-04-19T07:26:00.062Z,14.33
2019-04-19T07:28:12.427Z,13.60
2019-04-19T07:30:37.394Z,13.57
2019-04-19T07:33:12.972Z,14.00
2019-04-19T07:36:01.911Z,14.13
2019-04-19T07:38:29.079Z,13.73
2019-04-19T07:41:01.190Z,13.83
2019-04-19T07:43:28.867Z,13.37
2019-04-19T07:46:14.081Z,13.40
2019-04-19T07:48:36.569Z,13.93
2019-04-19T07:51:13.437Z,14.07
2019-04-19T07:53:44.307Z,16.17
2019-04-19T07:56:23.918Z,14.00
2019-04-19T07:59:07.863Z,14.23
2019-04-19T08:01:45.689Z,13.53
2019-04-19T08:04:19.900Z,13.53
2019-04-19T08:09:11.340Z,14.20
2019-04-19T08:14:35.839Z,13.33
2019-04-19T08:17:26.359Z,13.47
2019-04-19T08:29:07.170Z,14.57
2019-04-19T08:31:25.675Z,13.60
2019-04-19T08:33:55.220Z,13.97
2019-04-19T08:36:32.192Z,13.70
2019-04-19T08:39:17.108Z,13.90
2019-04-19T08:41:46.845Z,13.67
2019-04-19T08:44:18.151Z,13.60
2019-04-19T08:46:43.027Z,14.00
2019-04-19T08:49:28.399Z,14.17
2019-04-19T08:52:00.011Z,13.73
2019-04-19T08:54:56.509Z,13.83
2019-04-19T08:57:08.103Z,14.47
2019-04-19T08:59:53.812Z,13.00
2019-04-19T09:02:24.966Z,13.83
2019-04-19T09:04:55.124Z,13.53
2019-04-19T09:10:17.778Z,13.13
2019-04-19T09:12:30.856Z,14.97
2019-04-19T09:15:09.655Z,13.47
2019-04-19T09:17:59.334Z,12.83
2019-04-19T09:20:15.286Z,12.57
2019-04-19T09:22:37.190Z,14.27
2019-04-19T09:25:06.614Z,12.57
2019-04-19T09:27:52.219Z,11.93
2019-04-19T09:30:24.181Z,12.63
2019-04-19T09:32:35.965Z,13.13
2019-04-19T09:35:09.285Z,12.93
2019-04-19T09:37:47.700Z,15.63
2019-04-19T09:40:13.836Z,12.40
2019-04-19T09:42:51.081Z,12.40
2019-04-19T09:45:12.574Z,12.17
2019-04-19T09:47:42.580Z,11.60
2019-04-19T09:50:30.268Z,12.00
2019-04-19T09:53:10.450Z,10.90
2019-04-19T09:55:42.589Z,11.67
2019-04-19T09:58:08.839Z,11.73
2019-04-19T10:00:28.147Z,11.20
2019-04-19T10:03:02.784Z,11.30
2019-04-19T10:05:28.612Z,9.57
2019-04-19T10:07:59.673Z,10.20
2019-04-19T10:10:31.144Z,10.27
2019-04-19T10:13:03.589Z,9.90
2019-04-19T10:15:42.860Z,9.33
2019-04-19T10:18:14.524Z,9.23
2019-04-19T10:21:19.306Z,9.03
2019-04-19T10:23:41.469Z,9.20
2019-04-19T10:26:20.099Z,8.37
2019-04-19T10:28:50.865Z,9.27
2019-04-19T10:31:29.505Z,7.93
2019-04-19T10:34:02.996Z,8.43
2019-04-19T10:36:33.105Z,8.80
2019-04-19T10:39:03.497Z,7.43
2019-04-19T10:41:34.206Z,7.57
2019-04-19T10:44:13.217Z,6.33
2019-04-19T10:46:36.797Z,6.40
2019-04-19T10:49:14.343Z,11.73
2019-04-19T10:51:43.861Z,6.43
2019-04-19T10:54:14.862Z,6.30
2019-04-19T10:56:56.465Z,5.73
2019-04-19T10:59:27.388Z,6.10
2019-04-19T11:01:57.760Z,7.00
2019-04-19T11:04:28.874Z,5.67
2019-04-19T11:06:59.826Z,4.80
2019-04-19T11:09:31.166Z,4.57
2019-04-19T11:12:01.791Z,7.73
2019-04-19T11:14:34.341Z,6.00
2019-04-19T11:17:07.449Z,12.27
2019-04-19T11:19:49.697Z,6.67
2019-04-19T11:22:09.772Z,5.23
2019-04-19T11:24:41.556Z,4.63
2019-04-19T11:27:13.209Z,5.10
2019-04-19T11:29:44.769Z,5.40
2019-04-19T11:32:26.034Z,5.57
2019-04-19T11:34:56.254Z,5.07
2019-04-19T11:37:27.300Z,5.30
2019-04-19T11:39:57.698Z,15.63
2019-04-19T11:42:27.805Z,5.87
2019-04-19T11:44:59.357Z,6.10
2019-04-19T11:47:29.534Z,9.53
2019-04-19T11:50:00.214Z,6.00
2019-04-19T11:52:39.760Z,5.60
2019-04-19T11:55:10.694Z,5.07
2019-04-19T11:57:48.361Z,4.67
2019-04-19T12:00:38.011Z,5.43
2019-04-19T12:03:09.827Z,5.03
2019-04-19T12:05:40.040Z,5.50
2019-04-19T12:08:10.648Z,4.57
2019-04-19T12:10:40.655Z,5.60
2019-04-19T12:13:11.007Z,5.37
2019-04-19T12:15:42.186Z,4.70
2019-04-19T12:18:12.559Z,4.90
2019-04-19T12:20:42.906Z,4.60
2019-04-19T12:23:13.830Z,5.13
2019-04-19T12:25:45.802Z,4.67
2019-04-19T12:28:16.054Z,5.00
2019-04-19T12:30:50.566Z,5.10
2019-04-19T12:33:19.441Z,4.70
2019-04-19T12:35:49.763Z,5.10
2019-04-19T12:38:19.957Z,5.73
2019-04-19T12:40:58.210Z,5.03
2019-04-19T12:43:29.933Z,4.93
2019-04-19T12:46:01.081Z,5.00
2019-04-19T12:48:31.988Z,5.30
2019-04-19T12:51:02.289Z,5.10
2019-04-19T12:53:32.911Z,5.00
2019-04-19T12:56:04.128Z,5.40
2019-04-19T12:58:35.792Z,5.20
2019-04-19T13:01:21.873Z,5.70
2019-04-19T13:04:04.374Z,5.30
2019-04-19T13:06:35.898Z,5.50
2019-04-19T13:09:08.935Z,5.17
2019-04-19T13:11:41.081Z,5.03
2019-04-19T13:14:12.121Z,5.10
2019-04-19T13:16:44.051Z,5.43
2019-04-19T13:19:19.403Z,5.40
2019-04-19T13:21:48.872Z,5.67
2019-04-19T13:24:20.412Z,6.03
2019-04-19T13:26:51.695Z,5.70
2019-04-19T13:29:21.269Z,6.37
2019-04-19T13:31:52.463Z,5.83
2019-04-19T13:34:25.224Z,6.20
2019-04-19T13:37:29.546Z,5.70
2019-04-19T13:40:19.865Z,6.27
2019-04-19T13:42:52.535Z,5.50
2019-04-19T13:45:29.627Z,6.23
2019-04-19T13:47:56.957Z,5.97
2019-04-19T13:50:33.151Z,5.83
2019-04-19T13:52:58.890Z,5.73
2019-04-19T13:55:29.073Z,5.50
2019-04-19T13:57:59.770Z,5.73
2019-04-19T14:00:46.782Z,5.70
2019-04-19T14:03:23.703Z,6.00
2019-04-19T14:05:54.772Z,5.77
2019-04-19T14:08:25.238Z,6.10
2019-04-19T14:10:57.101Z,5.50
2019-04-19T14:13:27.390Z,5.43
2019-04-19T14:15:58.811Z,5.87
2019-04-19T14:18:30.869Z,6.27
2019-04-19T14:21:01.507Z,6.43
2019-04-19T14:23:33.247Z,10.67
2019-04-19T14:26:05.379Z,6.00
2019-04-19T14:28:35.894Z,5.90
2019-04-19T14:31:06.773Z,5.60
2019-04-19T14:33:37.295Z,5.63
2019-04-19T14:36:08.171Z,5.27
2019-04-19T14:38:41.299Z,5.17
2019-04-19T14:41:11.825Z,5.33
2019-04-19T14:43:42.748Z,4.97
2019-04-19T14:46:14.295Z,4.85
2019-04-19T14:48:47.281Z,5.37
2019-04-19T14:51:24.681Z,5.08
2019-04-19T14:53:49.752Z,5.40
2019-04-19T14:56:20.017Z,5.08
2019-04-19T14:58:50.840Z,4.87
2019-04-19T15:01:35.051Z,5.03
2019-04-19T15:04:10.966Z,5.00
2019-04-19T15:06:41.892Z,4.87
2019-04-19T15:09:12.100Z,4.67
2019-04-19T15:11:43.447Z,4.30
2019-04-19T15:14:14.453Z,5.03
2019-04-19T15:16:45.384Z,4.55
2019-04-19T15:19:16.733Z,4.53
2019-04-19T15:21:46.514Z,4.80
2019-04-19T15:24:16.886Z,4.35
2019-04-19T15:26:47.435Z,4.58
2019-04-19T15:29:18.862Z,4.40
2019-04-19T15:31:48.648Z,4.33
2019-04-19T15:34:19.985Z,4.20
2019-04-19T15:36:49.921Z,4.20
2019-04-19T15:39:19.772Z,4.20
2019-04-19T15:41:50.641Z,3.90
2019-04-19T15:44:20.741Z,4.08
2019-04-19T15:46:50.126Z,3.83
2019-04-19T15:49:21.731Z,4.17
2019-04-19T15:51:52.019Z,3.80
2019-04-19T15:54:21.976Z,3.90
2019-04-19T15:56:52.110Z,3.50
2019-04-19T15:59:24.979Z,4.10
2019-04-19T16:02:11.602Z,12.23
2019-04-19T16:04:59.798Z,4.00
2019-04-19T16:07:35.935Z,3.83
2019-04-19T16:10:19.795Z,4.03
2019-04-19T16:12:49.933Z,4.30
2019-04-19T16:15:20.119Z,6.30
2019-04-19T16:17:50.270Z,6.30
2019-04-19T16:20:21.147Z,4.17
2019-04-19T16:22:52.020Z,4.10
2019-04-19T16:25:23.245Z,4.30
2019-04-19T16:27:53.566Z,4.10
2019-04-19T16:30:24.051Z,4.13
2019-04-19T16:32:55.050Z,4.87
2019-04-19T16:35:26.407Z,4.93
2019-04-19T16:37:57.492Z,4.83
2019-04-19T16:40:28.104Z,9.03
2019-04-19T16:42:59.279Z,9.10
2019-04-19T16:45:30.184Z,6.83
2019-04-19T16:48:00.155Z,5.63
2019-04-19T16:50:30.497Z,5.80
2019-04-19T16:53:03.167Z,5.60
2019-04-19T16:55:31.717Z,5.80
2019-04-19T16:58:02.837Z,4.83
2019-04-19T17:00:42.996Z,5.13
2019-04-19T17:03:14.095Z,6.13
2019-04-19T17:05:44.647Z,5.27
2019-04-19T17:08:15.558Z,5.70
2019-04-19T17:10:46.852Z,5.50
2019-04-19T17:13:17.009Z,5.57
2019-04-19T17:16:11.734Z,5.67
2019-04-19T17:19:03.180Z,5.67
2019-04-19T17:21:45.206Z,5.43
2019-04-19T17:24:05.037Z,5.80
2019-04-19T17:26:35.234Z,5.77
2019-04-19T17:29:06.565Z,5.83
2019-04-19T17:31:36.696Z,7.00
2019-04-19T17:34:26.336Z,6.53
2019-04-19T17:36:56.350Z,6.37
2019-04-19T17:39:26.736Z,6.10
2019-04-19T17:41:56.765Z,8.20
2019-04-19T17:44:26.053Z,43.43
2019-04-19T17:46:56.365Z,16.10
2019-04-19T17:49:26.617Z,8.43
2019-04-19T17:52:04.716Z,14.97
2019-04-19T17:54:43.153Z,20.10
2019-04-19T17:56:59.514Z,12.30
2019-04-19T17:59:30.199Z,14.27
2019-04-19T18:02:01.233Z,10.00
2019-04-19T18:04:33.114Z,9.03
2019-04-19T18:07:04.617Z,9.50
2019-04-19T18:09:33.349Z,12.53
2019-04-19T18:12:03.132Z,8.33
2019-04-19T18:14:33.721Z,6.73
2019-04-19T18:17:03.573Z,5.90
2019-04-19T18:19:36.250Z,5.60
2019-04-19T18:22:15.282Z,5.47
2019-04-19T18:24:40.417Z,6.23
2019-04-19T18:27:09.085Z,8.40
2019-04-19T18:29:38.040Z,8.50
2019-04-19T18:32:25.938Z,6.70
2019-04-19T18:34:55.933Z,8.33
2019-04-19T18:37:29.622Z,6.43
2019-04-19T18:39:56.349Z,13.40
2019-04-19T18:42:26.038Z,5.53
2019-04-19T18:44:59.437Z,5.67
2019-04-19T18:47:27.135Z,5.90
2019-04-19T18:49:57.372Z,8.03
2019-04-19T18:52:38.381Z,7.20
2019-04-19T18:55:05.020Z,6.23
2019-04-19T18:57:33.924Z,5.77
2019-04-19T19:00:02.125Z,4.73
2019-04-19T19:02:32.292Z,4.97
2019-04-19T19:05:05.660Z,5.00
2019-04-19T19:07:34.682Z,5.00
2019-04-19T19:10:06.275Z,5.50
2019-04-19T19:12:41.442Z,5.57
2019-04-19T19:15:08.349Z,5.27
2019-04-19T19:17:38.144Z,6.03
2019-04-19T19:20:16.915Z,7.40
2019-04-19T19:23:00.199Z,7.13
2019-04-19T19:25:33.102Z,6.57
2019-04-19T19:27:50.419Z,5.60
2019-04-19T19:30:21.004Z,4.97
2019-04-19T19:32:53.957Z,4.97
2019-04-19T19:35:24.759Z,5.10
2019-04-19T19:37:52.725Z,7.07
2019-04-19T19:40:29.597Z,7.57
2019-04-19T19:43:11.720Z,9.13
2019-04-19T19:45:41.475Z,7.40
2019-04-19T19:48:23.721Z,6.00
2019-04-19T19:50:51.818Z,5.47
2019-04-19T19:53:35.859Z,5.40
2019-04-19T19:56:02.956Z,7.17
2019-04-19T19:58:17.189Z,8.60
2019-04-19T20:00:55.608Z,6.80
2019-04-19T20:03:16.380Z,5.87
2019-04-19T20:05:40.865Z,5.40
2019-04-19T20:08:09.608Z,5.87
2019-04-19T20:10:44.088Z,7.10
2019-04-19T20:13:15.917Z,6.37
2019-04-19T20:15:45.983Z,5.57
2019-04-19T20:18:14.421Z,7.13
2019-04-19T20:20:44.440Z,6.67
2019-04-19T20:23:21.693Z,6.57
2019-04-19T20:25:54.825Z,6.40
2019-04-19T20:28:23.637Z,6.97
2019-04-19T20:30:50.649Z,7.23
2019-04-19T20:33:19.668Z,7.63
2019-04-19T20:35:54.633Z,6.83
2019-04-19T20:38:24.738Z,11.87
2019-04-19T20:40:58.307Z,8.13
2019-04-19T20:43:39.841Z,6.47
2019-04-19T20:45:56.306Z,6.23
2019-04-19T20:48:28.076Z,6.27
2019-04-19T20:51:06.449Z,6.77
2019-04-19T20:53:38.197Z,6.87
2019-04-19T20:56:54.993Z,7.00
2019-04-19T20:58:52.560Z,7.20
2019-04-19T21:01:18.828Z,7.43
2019-04-19T21:03:49.758Z,6.30
2019-04-19T21:06:28.705Z,6.83
2019-04-19T21:08:52.675Z,7.03
2019-04-19T21:11:21.851Z,6.90
2019-04-19T21:13:56.711Z,6.73
2019-04-19T21:16:25.507Z,6.50
2019-04-19T21:18:56.869Z,7.17
2019-04-19T21:21:24.392Z,6.97
2019-04-19T21:24:00.509Z,6.70
2019-04-19T21:26:29.271Z,7.43
2019-04-19T21:28:58.060Z,7.30
2019-04-19T21:31:36.058Z,7.70
2019-04-19T21:34:02.934Z,7.77
2019-04-19T21:36:36.937Z,7.60
2019-04-19T21:39:06.464Z,8.43
2019-04-19T21:41:35.373Z,12.27
2019-04-19T21:44:04.829Z,9.10
2019-04-19T21:46:35.178Z,12.53
2019-04-19T21:49:08.993Z,14.07
2019-04-19T21:51:37.744Z,11.40
2019-04-19T21:54:08.253Z,8.90
2019-04-19T21:56:43.841Z,8.77
2019-04-19T21:59:11.106Z,9.40
2019-04-19T22:01:46.640Z,8.73
2019-04-19T22:04:15.719Z,8.33
2019-04-19T22:06:53.672Z,8.57
2019-04-19T22:09:21.767Z,7.53
2019-04-19T22:11:50.246Z,8.13
2019-04-19T22:14:24.859Z,8.83
2019-04-19T22:16:52.593Z,8.33
2019-04-19T22:19:27.955Z,8.40
2019-04-19T22:21:53.608Z,8.00
2019-04-19T22:24:31.105Z,8.30
2019-04-19T22:26:57.504Z,8.30
2019-04-19T22:29:27.432Z,8.03
2019-04-19T22:32:04.801Z,8.43
2019-04-19T22:34:28.595Z,7.93
2019-04-19T22:37:01.312Z,8.60
2019-04-19T22:39:29.715Z,9.00
2019-04-19T22:42:01.921Z,8.50
2019-04-19T22:44:32.483Z,7.80
2019-04-19T22:47:02.266Z,8.87
2019-04-19T22:49:33.959Z,8.20
2019-04-19T22:52:02.801Z,8.73
2019-04-19T22:54:32.883Z,8.70
2019-04-19T22:57:12.026Z,8.53
2019-04-19T22:59:33.845Z,8.73
2019-04-19T23:02:36.461Z,8.47
2019-04-19T23:05:03.161Z,8.43
2019-04-19T23:07:40.051Z,8.30
2019-04-19T23:10:06.528Z,8.47
2019-04-19T23:12:37.620Z,8.43
2019-04-19T23:15:15.708Z,8.50
2019-04-19T23:17:42.645Z,8.90
2019-04-19T23:20:13.727Z,9.33
2019-04-19T23:22:44.540Z,8.27
2019-04-19T23:25:15.591Z,8.73
2019-04-19T23:27:49.737Z,8.33
2019-04-19T23:30:22.306Z,7.50
2019-04-19T23:32:50.437Z,8.27
2019-04-19T23:35:28.577Z,8.70
2019-04-19T23:37:53.510Z,9.20
2019-04-19T23:40:29.364Z,9.30
2019-04-19T23:42:55.532Z,9.03
2019-04-19T23:45:32.969Z,9.37
2019-04-19T23:47:58.184Z,9.80
2019-04-19T23:50:32.592Z,9.20
2019-04-19T23:53:00.931Z,9.03
2019-04-19T23:55:30.570Z,8.90
2019-04-19T23:58:01.332Z,8.97
